Terminal Aerodrome Forecast
Issued by NWS

Home | Current Version | Previous Version | Text Only | Print | Product List | Glossary Off
Versions: 1 2 3 4 5 6 7 8 9 10 11 12 13 14 15 16 17 18 19 20 21 22 23 24 25 26 27 28 29 30 31 32 33

000
FTUS43 KLOT 261200 AAA
TAFORD
TAF AMD
KORD 261200Z 2612/2718 31013KT P6SM SCT030 BKN150
      TEMPO 2612/2614 BKN030
     FM261500 31012G20KT P6SM SCT025 BKN200
     FM261900 34013G17KT P6SM BKN030
     FM270200 36009KT P6SM BKN035
     FM270800 36012KT P6SM BKN050
     FM271500 36010G18KT P6SM SCT040 BKN060=

USA.gov is the U.S. government's official web portal to all federal, state and local government web resources and services.